Terminal Aerodrome Forecast
Issued by NWS Pittsburgh, PA

Home | Current Version | Previous Version | Text Only | Print | Product List | Glossary On
Versions: 1 2 3 4 5 6 7 8 9 10 11 12 13 14 15 16 17 18 19 20 21 22 23 24 25 26 27 28 29 30 31 32 33 34 35 36 37 38 39 40 41 42 43 44 45 46 47 48 49 50
000
FTUS41 KPBZ 160857 AAA
TAFPIT
TAF AMD
KPIT 160857Z 1609/1712 22010KT P6SM VCSH BKN030
     FM161200 23010KT P6SM VCSH OVC015
     FM161800 25007KT 6SM -SHRA VCTS BKN015CB
     FM162100 24007KT 5SM -SHRA VCTS BKN025CB
     FM170300 VRB03KT P6SM VCSH OVC045=

USA.gov is the U.S. government's official web portal to all federal, state and local government web resources and services.